sensor_id;sensor_type;location;lat;lon;timestamp;P1;durP1;ratioP1;P2;durP2;ratioP2
17201;SDS011;8717;53.588;10.176;2023-05-08T00:00:09;2.70;;;2.50;;
17201;SDS011;8717;53.588;10.176;2023-05-08T00:02:38;2.90;;;2.47;;
17201;SDS011;8717;53.588;10.176;2023-05-08T00:05:05;3.00;;;2.70;;
17201;SDS011;8717;53.588;10.176;2023-05-08T00:07:32;3.40;;;3.00;;
17201;SDS011;8717;53.588;10.176;2023-05-08T00:10:00;2.93;;;2.60;;
17201;SDS011;8717;53.588;10.176;2023-05-08T00:12:27;3.07;;;2.53;;
17201;SDS011;8717;53.588;10.176;2023-05-08T00:14:53;3.20;;;2.70;;
17201;SDS011;8717;53.588;10.176;2023-05-08T00:17:20;3.00;;;2.80;;
17201;SDS011;8717;53.588;10.176;2023-05-08T00:19:48;3.13;;;2.63;;
17201;SDS011;8717;53.588;10.176;2023-05-08T00:22:16;3.33;;;2.90;;
17201;SDS011;8717;53.588;10.176;2023-05-08T00:24:43;3.03;;;2.70;;
17201;SDS011;8717;53.588;10.176;2023-05-08T00:27:10;3.20;;;2.53;;
17201;SDS011;8717;53.588;10.176;2023-05-08T00:29:37;3.63;;;3.20;;
17201;SDS011;8717;53.588;10.176;2023-05-08T00:32:04;4.40;;;2.93;;
17201;SDS011;8717;53.588;10.176;2023-05-08T00:34:31;4.30;;;2.97;;
17201;SDS011;8717;53.588;10.176;2023-05-08T00:37:00;3.30;;;3.00;;
17201;SDS011;8717;53.588;10.176;2023-05-08T00:39:27;3.13;;;2.80;;
17201;SDS011;8717;53.588;10.176;2023-05-08T00:41:53;3.57;;;3.10;;
17201;SDS011;8717;53.588;10.176;2023-05-08T00:44:20;3.63;;;3.00;;
17201;SDS011;8717;53.588;10.176;2023-05-08T00:46:47;3.67;;;3.00;;
17201;SDS011;8717;53.588;10.176;2023-05-08T00:49:15;4.17;;;3.00;;
17201;SDS011;8717;53.588;10.176;2023-05-08T00:51:43;4.23;;;2.90;;
17201;SDS011;8717;53.588;10.176;2023-05-08T00:54:13;3.40;;;3.10;;
17201;SDS011;8717;53.588;10.176;2023-05-08T00:56:40;3.27;;;2.97;;
17201;SDS011;8717;53.588;10.176;2023-05-08T00:59:13;3.03;;;2.83;;
17201;SDS011;8717;53.588;10.176;2023-05-08T01:01:41;3.90;;;3.10;;
17201;SDS011;8717;53.588;10.176;2023-05-08T01:04:09;3.43;;;3.13;;
17201;SDS011;8717;53.588;10.176;2023-05-08T01:06:36;3.63;;;3.17;;
17201;SDS011;8717;53.588;10.176;2023-05-08T01:09:03;3.17;;;2.87;;
17201;SDS011;8717;53.588;10.176;2023-05-08T01:11:32;3.57;;;2.97;;
17201;SDS011;8717;53.588;10.176;2023-05-08T01:14:06;3.40;;;3.10;;
17201;SDS011;8717;53.588;10.176;2023-05-08T01:16:38;3.37;;;3.07;;
17201;SDS011;8717;53.588;10.176;2023-05-08T01:19:25;3.80;;;3.07;;
17201;SDS011;8717;53.588;10.176;2023-05-08T01:22:11;4.47;;;3.43;;
17201;SDS011;8717;53.588;10.176;2023-05-08T01:25:02;3.07;;;2.80;;
17201;SDS011;8717;53.588;10.176;2023-05-08T01:28:15;3.47;;;3.00;;
17201;SDS011;8717;53.588;10.176;2023-05-08T01:31:07;4.10;;;3.00;;
17201;SDS011;8717;53.588;10.176;2023-05-08T01:33:44;3.47;;;3.03;;
17201;SDS011;8717;53.588;10.176;2023-05-08T01:36:19;3.27;;;2.97;;
17201;SDS011;8717;53.588;10.176;2023-05-08T01:38:52;3.43;;;2.90;;
17201;SDS011;8717;53.588;10.176;2023-05-08T01:41:27;3.83;;;3.10;;
17201;SDS011;8717;53.588;10.176;2023-05-08T01:44:01;4.33;;;3.00;;
17201;SDS011;8717;53.588;10.176;2023-05-08T01:46:35;5.27;;;2.90;;
17201;SDS011;8717;53.588;10.176;2023-05-08T01:49:04;3.73;;;2.97;;
17201;SDS011;8717;53.588;10.176;2023-05-08T01:51:35;5.73;;;2.93;;
17201;SDS011;8717;53.588;10.176;2023-05-08T01:54:05;3.27;;;2.90;;
17201;SDS011;8717;53.588;10.176;2023-05-08T01:56:36;3.53;;;3.23;;
17201;SDS011;8717;53.588;10.176;2023-05-08T01:59:05;4.23;;;3.20;;
17201;SDS011;8717;53.588;10.176;2023-05-08T02:01:34;3.60;;;3.20;;
17201;SDS011;8717;53.588;10.176;2023-05-08T02:04:01;4.00;;;3.60;;
17201;SDS011;8717;53.588;10.176;2023-05-08T02:06:30;4.93;;;3.40;;
17201;SDS011;8717;53.588;10.176;2023-05-08T02:08:58;5.00;;;3.23;;
17201;SDS011;8717;53.588;10.176;2023-05-08T02:11:27;4.43;;;3.17;;
17201;SDS011;8717;53.588;10.176;2023-05-08T02:13:55;3.67;;;3.30;;
17201;SDS011;8717;53.588;10.176;2023-05-08T02:16:24;4.00;;;3.60;;
17201;SDS011;8717;53.588;10.176;2023-05-08T02:18:53;4.03;;;3.60;;
17201;SDS011;8717;53.588;10.176;2023-05-08T02:21:23;3.70;;;3.40;;
17201;SDS011;8717;53.588;10.176;2023-05-08T02:23:51;5.27;;;3.20;;
17201;SDS011;8717;53.588;10.176;2023-05-08T02:26:21;5.03;;;3.70;;
17201;SDS011;8717;53.588;10.176;2023-05-08T02:28:50;4.17;;;3.60;;
17201;SDS011;8717;53.588;10.176;2023-05-08T02:31:18;3.97;;;3.67;;
17201;SDS011;8717;53.588;10.176;2023-05-08T02:33:46;5.67;;;3.70;;
17201;SDS011;8717;53.588;10.176;2023-05-08T02:36:15;3.67;;;3.30;;
17201;SDS011;8717;53.588;10.176;2023-05-08T02:38:45;3.80;;;3.50;;
17201;SDS011;8717;53.588;10.176;2023-05-08T02:41:15;4.43;;;4.03;;
17201;SDS011;8717;53.588;10.176;2023-05-08T02:43:45;4.53;;;3.70;;
17201;SDS011;8717;53.588;10.176;2023-05-08T02:46:13;4.80;;;3.60;;
17201;SDS011;8717;53.588;10.176;2023-05-08T02:48:46;4.40;;;4.00;;
17201;SDS011;8717;53.588;10.176;2023-05-08T02:51:21;4.07;;;3.67;;
17201;SDS011;8717;53.588;10.176;2023-05-08T02:53:56;3.73;;;3.33;;
17201;SDS011;8717;53.588;10.176;2023-05-08T02:56:29;3.73;;;3.33;;
17201;SDS011;8717;53.588;10.176;2023-05-08T02:59:00;4.40;;;3.87;;
17201;SDS011;8717;53.588;10.176;2023-05-08T03:01:39;3.93;;;3.60;;
17201;SDS011;8717;53.588;10.176;2023-05-08T03:04:11;4.03;;;3.53;;
17201;SDS011;8717;53.588;10.176;2023-05-08T03:06:47;4.30;;;3.90;;
17201;SDS011;8717;53.588;10.176;2023-05-08T03:09:17;3.83;;;3.53;;
17201;SDS011;8717;53.588;10.176;2023-05-08T03:11:47;4.50;;;3.77;;
17201;SDS011;8717;53.588;10.176;2023-05-08T03:14:18;3.87;;;3.57;;
17201;SDS011;8717;53.588;10.176;2023-05-08T03:16:47;4.50;;;4.10;;
17201;SDS011;8717;53.588;10.176;2023-05-08T03:19:18;4.70;;;3.63;;
17201;SDS011;8717;53.588;10.176;2023-05-08T03:21:49;4.53;;;4.00;;
17201;SDS011;8717;53.588;10.176;2023-05-08T03:24:20;4.27;;;3.87;;
17201;SDS011;8717;53.588;10.176;2023-05-08T03:26:49;4.50;;;3.73;;
17201;SDS011;8717;53.588;10.176;2023-05-08T03:29:16;4.20;;;3.80;;
17201;SDS011;8717;53.588;10.176;2023-05-08T03:31:44;4.50;;;4.00;;
17201;SDS011;8717;53.588;10.176;2023-05-08T03:34:12;4.43;;;4.00;;
17201;SDS011;8717;53.588;10.176;2023-05-08T03:36:40;4.20;;;3.67;;
17201;SDS011;8717;53.588;10.176;2023-05-08T03:39:08;4.50;;;4.10;;
17201;SDS011;8717;53.588;10.176;2023-05-08T03:41:36;3.87;;;3.57;;
17201;SDS011;8717;53.588;10.176;2023-05-08T03:44:03;5.53;;;4.20;;
17201;SDS011;8717;53.588;10.176;2023-05-08T03:46:32;4.20;;;3.80;;
17201;SDS011;8717;53.588;10.176;2023-05-08T03:49:01;4.23;;;3.83;;
17201;SDS011;8717;53.588;10.176;2023-05-08T03:51:30;4.57;;;4.00;;
17201;SDS011;8717;53.588;10.176;2023-05-08T03:53:57;4.40;;;4.00;;
17201;SDS011;8717;53.588;10.176;2023-05-08T03:56:24;5.40;;;3.87;;
17201;SDS011;8717;53.588;10.176;2023-05-08T03:58:55;4.23;;;3.93;;
17201;SDS011;8717;53.588;10.176;2023-05-08T04:01:36;4.33;;;3.90;;
17201;SDS011;8717;53.588;10.176;2023-05-08T04:04:08;4.77;;;3.60;;
17201;SDS011;8717;53.588;10.176;2023-05-08T04:06:43;6.87;;;4.40;;
17201;SDS011;8717;53.588;10.176;2023-05-08T04:09:16;4.40;;;4.00;;
17201;SDS011;8717;53.588;10.176;2023-05-08T04:11:49;4.30;;;3.87;;
17201;SDS011;8717;53.588;10.176;2023-05-08T04:14:25;5.23;;;4.10;;
17201;SDS011;8717;53.588;10.176;2023-05-08T04:17:02;6.67;;;4.33;;
17201;SDS011;8717;53.588;10.176;2023-05-08T04:19:32;6.13;;;4.27;;
17201;SDS011;8717;53.588;10.176;2023-05-08T04:22:04;4.60;;;4.20;;
17201;SDS011;8717;53.588;10.176;2023-05-08T04:24:34;4.80;;;4.40;;
17201;SDS011;8717;53.588;10.176;2023-05-08T04:27:06;4.33;;;3.93;;
17201;SDS011;8717;53.588;10.176;2023-05-08T04:29:35;5.27;;;4.00;;
17201;SDS011;8717;53.588;10.176;2023-05-08T04:32:03;4.27;;;3.87;;
17201;SDS011;8717;53.588;10.176;2023-05-08T04:34:33;4.60;;;4.10;;
17201;SDS011;8717;53.588;10.176;2023-05-08T04:37:00;4.80;;;4.40;;
17201;SDS011;8717;53.588;10.176;2023-05-08T04:39:28;5.43;;;4.67;;
17201;SDS011;8717;53.588;10.176;2023-05-08T04:41:55;5.17;;;4.60;;
17201;SDS011;8717;53.588;10.176;2023-05-08T04:44:27;4.33;;;3.93;;
17201;SDS011;8717;53.588;10.176;2023-05-08T04:46:56;5.23;;;4.73;;
17201;SDS011;8717;53.588;10.176;2023-05-08T04:49:24;6.67;;;4.23;;
17201;SDS011;8717;53.588;10.176;2023-05-08T04:51:51;5.40;;;4.20;;
17201;SDS011;8717;53.588;10.176;2023-05-08T04:54:18;5.30;;;4.67;;
17201;SDS011;8717;53.588;10.176;2023-05-08T04:56:45;5.80;;;5.03;;
17201;SDS011;8717;53.588;10.176;2023-05-08T04:59:11;4.40;;;4.00;;
17201;SDS011;8717;53.588;10.176;2023-05-08T05:01:38;5.43;;;4.80;;
17201;SDS011;8717;53.588;10.176;2023-05-08T05:04:06;5.30;;;4.57;;
17201;SDS011;8717;53.588;10.176;2023-05-08T05:06:33;4.83;;;4.37;;
17201;SDS011;8717;53.588;10.176;2023-05-08T05:08:59;4.93;;;4.43;;
17201;SDS011;8717;53.588;10.176;2023-05-08T05:11:26;5.30;;;4.80;;
17201;SDS011;8717;53.588;10.176;2023-05-08T05:13:53;5.77;;;4.90;;
17201;SDS011;8717;53.588;10.176;2023-05-08T05:16:20;6.20;;;4.60;;
17201;SDS011;8717;53.588;10.176;2023-05-08T05:18:47;5.60;;;4.93;;
17201;SDS011;8717;53.588;10.176;2023-05-08T05:21:15;5.47;;;4.80;;
17201;SDS011;8717;53.588;10.176;2023-05-08T05:23:42;6.77;;;4.97;;
17201;SDS011;8717;53.588;10.176;2023-05-08T05:26:09;5.00;;;4.50;;
17201;SDS011;8717;53.588;10.176;2023-05-08T05:28:36;5.73;;;5.07;;
17201;SDS011;8717;53.588;10.176;2023-05-08T05:31:04;5.30;;;4.80;;
17201;SDS011;8717;53.588;10.176;2023-05-08T05:33:31;5.37;;;4.87;;
17201;SDS011;8717;53.588;10.176;2023-05-08T05:35:58;5.50;;;4.70;;
17201;SDS011;8717;53.588;10.176;2023-05-08T05:38:26;4.90;;;4.40;;
17201;SDS011;8717;53.588;10.176;2023-05-08T05:40:53;6.00;;;5.20;;
17201;SDS011;8717;53.588;10.176;2023-05-08T05:43:20;5.20;;;4.70;;
17201;SDS011;8717;53.588;10.176;2023-05-08T05:45:47;6.87;;;5.03;;
17201;SDS011;8717;53.588;10.176;2023-05-08T05:48:14;5.63;;;4.97;;
17201;SDS011;8717;53.588;10.176;2023-05-08T05:50:41;7.13;;;5.27;;
17201;SDS011;8717;53.588;10.176;2023-05-08T05:53:08;6.60;;;5.10;;
17201;SDS011;8717;53.588;10.176;2023-05-08T05:55:36;5.70;;;5.10;;
17201;SDS011;8717;53.588;10.176;2023-05-08T05:58:03;7.17;;;5.10;;
17201;SDS011;8717;53.588;10.176;2023-05-08T06:00:31;5.70;;;5.00;;
17201;SDS011;8717;53.588;10.176;2023-05-08T06:02:58;6.20;;;5.37;;
17201;SDS011;8717;53.588;10.176;2023-05-08T06:05:26;6.27;;;5.57;;
17201;SDS011;8717;53.588;10.176;2023-05-08T06:07:52;5.20;;;4.70;;
17201;SDS011;8717;53.588;10.176;2023-05-08T06:10:19;5.20;;;4.70;;
17201;SDS011;8717;53.588;10.176;2023-05-08T06:12:48;5.93;;;5.33;;
17201;SDS011;8717;53.588;10.176;2023-05-08T06:15:15;6.37;;;5.23;;
17201;SDS011;8717;53.588;10.176;2023-05-08T06:17:44;5.50;;;4.97;;
17201;SDS011;8717;53.588;10.176;2023-05-08T06:20:11;6.03;;;5.20;;
17201;SDS011;8717;53.588;10.176;2023-05-08T06:22:38;11.73;;;5.90;;
17201;SDS011;8717;53.588;10.176;2023-05-08T06:25:06;6.47;;;4.80;;
17201;SDS011;8717;53.588;10.176;2023-05-08T06:27:33;6.63;;;5.40;;
17201;SDS011;8717;53.588;10.176;2023-05-08T06:30:02;7.30;;;5.63;;
17201;SDS011;8717;53.588;10.176;2023-05-08T06:32:31;5.53;;;5.03;;
17201;SDS011;8717;53.588;10.176;2023-05-08T06:34:58;5.60;;;5.10;;
17201;SDS011;8717;53.588;10.176;2023-05-08T06:37:25;6.83;;;5.97;;
17201;SDS011;8717;53.588;10.176;2023-05-08T06:39:52;8.27;;;5.53;;
17201;SDS011;8717;53.588;10.176;2023-05-08T06:42:18;5.33;;;4.83;;
17201;SDS011;8717;53.588;10.176;2023-05-08T06:44:45;6.17;;;5.13;;
17201;SDS011;8717;53.588;10.176;2023-05-08T06:47:13;5.77;;;4.97;;
17201;SDS011;8717;53.588;10.176;2023-05-08T06:49:39;5.27;;;4.77;;
17201;SDS011;8717;53.588;10.176;2023-05-08T06:52:06;6.53;;;5.20;;
17201;SDS011;8717;53.588;10.176;2023-05-08T06:54:33;6.27;;;5.20;;
17201;SDS011;8717;53.588;10.176;2023-05-08T06:56:59;6.50;;;5.43;;
17201;SDS011;8717;53.588;10.176;2023-05-08T06:59:26;5.80;;;5.20;;
17201;SDS011;8717;53.588;10.176;2023-05-08T07:01:53;5.97;;;5.10;;
17201;SDS011;8717;53.588;10.176;2023-05-08T07:04:21;6.30;;;5.17;;
17201;SDS011;8717;53.588;10.176;2023-05-08T07:06:48;7.17;;;5.40;;
17201;SDS011;8717;53.588;10.176;2023-05-08T07:09:14;5.87;;;5.20;;
17201;SDS011;8717;53.588;10.176;2023-05-08T07:11:41;5.40;;;4.90;;
17201;SDS011;8717;53.588;10.176;2023-05-08T07:14:08;5.40;;;4.90;;
17201;SDS011;8717;53.588;10.176;2023-05-08T07:16:35;5.33;;;4.83;;
17201;SDS011;8717;53.588;10.176;2023-05-08T07:19:02;6.77;;;5.10;;
17201;SDS011;8717;53.588;10.176;2023-05-08T07:21:30;5.83;;;5.13;;
17201;SDS011;8717;53.588;10.176;2023-05-08T07:23:56;5.50;;;5.00;;
17201;SDS011;8717;53.588;10.176;2023-05-08T07:26:23;5.30;;;4.80;;
17201;SDS011;8717;53.588;10.176;2023-05-08T07:28:50;6.47;;;5.00;;
17201;SDS011;8717;53.588;10.176;2023-05-08T07:31:18;7.30;;;5.00;;
17201;SDS011;8717;53.588;10.176;2023-05-08T07:33:45;5.23;;;4.70;;
17201;SDS011;8717;53.588;10.176;2023-05-08T07:36:11;6.20;;;5.13;;
17201;SDS011;8717;53.588;10.176;2023-05-08T07:38:39;5.87;;;5.30;;
17201;SDS011;8717;53.588;10.176;2023-05-08T07:41:06;5.33;;;4.83;;
17201;SDS011;8717;53.588;10.176;2023-05-08T07:43:33;5.97;;;5.37;;
17201;SDS011;8717;53.588;10.176;2023-05-08T07:46:01;5.60;;;5.07;;
17201;SDS011;8717;53.588;10.176;2023-05-08T07:48:27;6.17;;;5.50;;
17201;SDS011;8717;53.588;10.176;2023-05-08T07:50:54;6.00;;;5.27;;
17201;SDS011;8717;53.588;10.176;2023-05-08T07:53:21;6.67;;;5.20;;
17201;SDS011;8717;53.588;10.176;2023-05-08T07:55:49;6.20;;;5.60;;
17201;SDS011;8717;53.588;10.176;2023-05-08T07:58:16;7.13;;;5.77;;
17201;SDS011;8717;53.588;10.176;2023-05-08T08:00:42;5.20;;;4.70;;
17201;SDS011;8717;53.588;10.176;2023-05-08T08:03:09;6.60;;;4.70;;
17201;SDS011;8717;53.588;10.176;2023-05-08T08:05:36;8.00;;;4.80;;
17201;SDS011;8717;53.588;10.176;2023-05-08T08:08:03;6.43;;;5.67;;
17201;SDS011;8717;53.588;10.176;2023-05-08T08:10:30;5.67;;;5.07;;
17201;SDS011;8717;53.588;10.176;2023-05-08T08:12:59;6.27;;;5.30;;
17201;SDS011;8717;53.588;10.176;2023-05-08T08:15:26;6.33;;;5.73;;
17201;SDS011;8717;53.588;10.176;2023-05-08T08:17:53;6.13;;;5.53;;
17201;SDS011;8717;53.588;10.176;2023-05-08T08:20:20;6.47;;;5.80;;
17201;SDS011;8717;53.588;10.176;2023-05-08T08:22:47;6.27;;;5.67;;
17201;SDS011;8717;53.588;10.176;2023-05-08T08:25:14;5.90;;;5.40;;
17201;SDS011;8717;53.588;10.176;2023-05-08T08:27:40;5.53;;;5.03;;
17201;SDS011;8717;53.588;10.176;2023-05-08T08:30:08;5.60;;;5.10;;
17201;SDS011;8717;53.588;10.176;2023-05-08T08:32:35;6.20;;;5.60;;
17201;SDS011;8717;53.588;10.176;2023-05-08T08:35:02;5.97;;;5.47;;
17201;SDS011;8717;53.588;10.176;2023-05-08T08:37:29;5.70;;;5.10;;
17201;SDS011;8717;53.588;10.176;2023-05-08T08:39:56;5.75;;;5.15;;
17201;SDS011;8717;53.588;10.176;2023-05-08T08:42:22;7.53;;;5.73;;
17201;SDS011;8717;53.588;10.176;2023-05-08T08:44:49;6.50;;;5.87;;
17201;SDS011;8717;53.588;10.176;2023-05-08T08:47:17;6.07;;;5.47;;
17201;SDS011;8717;53.588;10.176;2023-05-08T08:49:47;6.27;;;5.67;;
17201;SDS011;8717;53.588;10.176;2023-05-08T08:52:18;6.32;;;5.18;;
17201;SDS011;8717;53.588;10.176;2023-05-08T08:54:52;5.68;;;5.18;;
17201;SDS011;8717;53.588;10.176;2023-05-08T08:57:21;5.60;;;5.10;;
17201;SDS011;8717;53.588;10.176;2023-05-08T08:59:49;5.82;;;5.05;;
17201;SDS011;8717;53.588;10.176;2023-05-08T09:02:19;5.80;;;5.13;;
17201;SDS011;8717;53.588;10.176;2023-05-08T09:04:48;5.65;;;5.05;;
17201;SDS011;8717;53.588;10.176;2023-05-08T09:07:15;6.13;;;5.55;;
17201;SDS011;8717;53.588;10.176;2023-05-08T09:09:43;5.75;;;5.25;;
17201;SDS011;8717;53.588;10.176;2023-05-08T09:12:11;5.50;;;5.00;;
17201;SDS011;8717;53.588;10.176;2023-05-08T09:14:38;6.28;;;5.43;;
17201;SDS011;8717;53.588;10.176;2023-05-08T09:17:05;6.13;;;5.20;;
17201;SDS011;8717;53.588;10.176;2023-05-08T09:19:33;6.10;;;4.88;;
17201;SDS011;8717;53.588;10.176;2023-05-08T09:22:00;5.40;;;4.90;;
17201;SDS011;8717;53.588;10.176;2023-05-08T09:27:20;5.40;;;4.35;;
17201;SDS011;8717;53.588;10.176;2023-05-08T09:29:57;5.05;;;4.57;;
17201;SDS011;8717;53.588;10.176;2023-05-08T09:32:25;5.60;;;4.95;;
17201;SDS011;8717;53.588;10.176;2023-05-08T09:34:53;6.03;;;4.65;;
17201;SDS011;8717;53.588;10.176;2023-05-08T09:37:20;4.72;;;4.32;;
17201;SDS011;8717;53.588;10.176;2023-05-08T09:39:47;4.93;;;4.45;;
17201;SDS011;8717;53.588;10.176;2023-05-08T09:42:14;5.50;;;4.50;;
17201;SDS011;8717;53.588;10.176;2023-05-08T09:44:44;6.63;;;4.88;;
17201;SDS011;8717;53.588;10.176;2023-05-08T09:47:13;5.55;;;4.88;;
17201;SDS011;8717;53.588;10.176;2023-05-08T09:52:25;6.13;;;4.32;;
17201;SDS011;8717;53.588;10.176;2023-05-08T09:54:55;5.25;;;4.60;;
17201;SDS011;8717;53.588;10.176;2023-05-08T09:57:23;5.10;;;4.40;;
17201;SDS011;8717;53.588;10.176;2023-05-08T09:59:50;4.88;;;4.47;;
17201;SDS011;8717;53.588;10.176;2023-05-08T10:02:25;5.05;;;4.25;;
17201;SDS011;8717;53.588;10.176;2023-05-08T10:04:51;4.70;;;4.30;;
17201;SDS011;8717;53.588;10.176;2023-05-08T10:07:26;4.35;;;3.95;;
17201;SDS011;8717;53.588;10.176;2023-05-08T10:09:57;4.90;;;3.83;;
17201;SDS011;8717;53.588;10.176;2023-05-08T10:12:25;4.63;;;4.22;;
17201;SDS011;8717;53.588;10.176;2023-05-08T10:14:53;4.22;;;3.83;;
17201;SDS011;8717;53.588;10.176;2023-05-08T10:17:22;4.40;;;4.00;;
17201;SDS011;8717;53.588;10.176;2023-05-08T10:19:51;4.72;;;4.13;;
17201;SDS011;8717;53.588;10.176;2023-05-08T10:22:24;4.50;;;4.07;;
17201;SDS011;8717;53.588;10.176;2023-05-08T10:24:53;5.28;;;4.38;;
17201;SDS011;8717;53.588;10.176;2023-05-08T10:27:23;5.47;;;4.28;;
17201;SDS011;8717;53.588;10.176;2023-05-08T10:30:00;4.75;;;4.32;;
17201;SDS011;8717;53.588;10.176;2023-05-08T10:32:30;6.47;;;4.03;;
17201;SDS011;8717;53.588;10.176;2023-05-08T10:35:02;5.03;;;3.92;;
17201;SDS011;8717;53.588;10.176;2023-05-08T10:37:31;5.75;;;3.88;;
17201;SDS011;8717;53.588;10.176;2023-05-08T10:40:02;8.75;;;7.85;;
17201;SDS011;8717;53.588;10.176;2023-05-08T10:42:30;5.80;;;4.30;;
17201;SDS011;8717;53.588;10.176;2023-05-08T10:44:59;4.28;;;3.80;;
17201;SDS011;8717;53.588;10.176;2023-05-08T10:47:27;5.82;;;4.28;;
17201;SDS011;8717;53.588;10.176;2023-05-08T10:50:03;4.20;;;3.80;;
17201;SDS011;8717;53.588;10.176;2023-05-08T10:52:38;5.18;;;3.70;;
17201;SDS011;8717;53.588;10.176;2023-05-08T10:55:15;3.90;;;3.50;;
17201;SDS011;8717;53.588;10.176;2023-05-08T10:58:03;4.82;;;3.78;;
17201;SDS011;8717;53.588;10.176;2023-05-08T11:00:32;3.95;;;3.35;;
17201;SDS011;8717;53.588;10.176;2023-05-08T11:03:38;3.47;;;3.17;;
17201;SDS011;8717;53.588;10.176;2023-05-08T11:06:07;3.20;;;2.90;;
17201;SDS011;8717;53.588;10.176;2023-05-08T11:08:41;3.33;;;3.03;;
17201;SDS011;8717;53.588;10.176;2023-05-08T11:11:16;3.45;;;2.70;;
17201;SDS011;8717;53.588;10.176;2023-05-08T11:13:54;3.67;;;2.95;;
17201;SDS011;8717;53.588;10.176;2023-05-08T11:19:29;2.90;;;2.42;;
17201;SDS011;8717;53.588;10.176;2023-05-08T11:22:12;5.15;;;2.50;;
17201;SDS011;8717;53.588;10.176;2023-05-08T11:24:45;2.47;;;2.28;;
17201;SDS011;8717;53.588;10.176;2023-05-08T11:27:15;3.45;;;2.55;;
17201;SDS011;8717;53.588;10.176;2023-05-08T11:29:41;3.08;;;2.20;;
17201;SDS011;8717;53.588;10.176;2023-05-08T11:32:09;2.10;;;1.90;;
17201;SDS011;8717;53.588;10.176;2023-05-08T11:34:45;3.50;;;2.17;;
17201;SDS011;8717;53.588;10.176;2023-05-08T11:37:16;3.50;;;2.35;;
17201;SDS011;8717;53.588;10.176;2023-05-08T11:39:44;2.45;;;2.20;;
17201;SDS011;8717;53.588;10.176;2023-05-08T11:45:05;3.83;;;1.80;;
17201;SDS011;8717;53.588;10.176;2023-05-08T11:47:36;2.08;;;1.98;;
17201;SDS011;8717;53.588;10.176;2023-05-08T11:50:04;2.15;;;1.90;;
17201;SDS011;8717;53.588;10.176;2023-05-08T11:52:31;3.35;;;2.00;;
17201;SDS011;8717;53.588;10.176;2023-05-08T11:55:00;2.72;;;2.00;;
17201;SDS011;8717;53.588;10.176;2023-05-08T11:57:29;3.65;;;2.40;;
17201;SDS011;8717;53.588;10.176;2023-05-08T12:00:00;2.25;;;1.92;;
17201;SDS011;8717;53.588;10.176;2023-05-08T12:02:34;2.63;;;2.00;;
17201;SDS011;8717;53.588;10.176;2023-05-08T12:05:02;3.95;;;2.00;;
17201;SDS011;8717;53.588;10.176;2023-05-08T12:07:29;2.67;;;2.22;;
17201;SDS011;8717;53.588;10.176;2023-05-08T12:09:56;2.50;;;1.90;;
17201;SDS011;8717;53.588;10.176;2023-05-08T12:12:23;2.10;;;1.90;;
17201;SDS011;8717;53.588;10.176;2023-05-08T12:15:01;2.65;;;2.00;;
17201;SDS011;8717;53.588;10.176;2023-05-08T12:17:31;2.70;;;1.95;;
17201;SDS011;8717;53.588;10.176;2023-05-08T12:20:05;1.95;;;1.75;;
17201;SDS011;8717;53.588;10.176;2023-05-08T12:22:35;3.10;;;1.90;;
17201;SDS011;8717;53.588;10.176;2023-05-08T12:25:02;2.42;;;1.60;;
17201;SDS011;8717;53.588;10.176;2023-05-08T12:27:29;1.70;;;1.52;;
17201;SDS011;8717;53.588;10.176;2023-05-08T12:29:56;2.85;;;1.60;;
17201;SDS011;8717;53.588;10.176;2023-05-08T12:32:24;2.20;;;1.50;;
17201;SDS011;8717;53.588;10.176;2023-05-08T12:34:50;1.92;;;1.35;;
17201;SDS011;8717;53.588;10.176;2023-05-08T12:37:22;1.75;;;1.50;;
17201;SDS011;8717;53.588;10.176;2023-05-08T12:39:49;1.73;;;1.35;;
17201;SDS011;8717;53.588;10.176;2023-05-08T12:42:16;2.22;;;1.58;;
17201;SDS011;8717;53.588;10.176;2023-05-08T12:44:48;2.97;;;1.60;;
17201;SDS011;8717;53.588;10.176;2023-05-08T12:47:17;2.42;;;1.70;;
17201;SDS011;8717;53.588;10.176;2023-05-08T12:49:46;2.03;;;1.50;;
17201;SDS011;8717;53.588;10.176;2023-05-08T12:52:14;2.15;;;1.58;;
17201;SDS011;8717;53.588;10.176;2023-05-08T12:54:45;2.28;;;1.45;;
17201;SDS011;8717;53.588;10.176;2023-05-08T12:57:13;2.05;;;1.65;;
17201;SDS011;8717;53.588;10.176;2023-05-08T12:59:41;2.42;;;1.60;;
17201;SDS011;8717;53.588;10.176;2023-05-08T13:02:12;3.70;;;1.50;;
17201;SDS011;8717;53.588;10.176;2023-05-08T13:04:40;1.83;;;1.38;;
17201;SDS011;8717;53.588;10.176;2023-05-08T13:07:08;4.18;;;1.45;;
17201;SDS011;8717;53.588;10.176;2023-05-08T13:09:35;1.80;;;1.48;;
17201;SDS011;8717;53.588;10.176;2023-05-08T13:12:02;1.30;;;1.20;;
17201;SDS011;8717;53.588;10.176;2023-05-08T13:14:30;2.45;;;1.70;;
17201;SDS011;8717;53.588;10.176;2023-05-08T13:16:57;2.00;;;1.55;;
17201;SDS011;8717;53.588;10.176;2023-05-08T13:19:24;4.53;;;1.45;;
17201;SDS011;8717;53.588;10.176;2023-05-08T13:21:51;2.55;;;1.40;;
17201;SDS011;8717;53.588;10.176;2023-05-08T13:24:19;2.17;;;1.52;;
17201;SDS011;8717;53.588;10.176;2023-05-08T13:26:46;3.30;;;1.55;;
17201;SDS011;8717;53.588;10.176;2023-05-08T13:29:12;4.43;;;1.70;;
17201;SDS011;8717;53.588;10.176;2023-05-08T13:31:39;1.90;;;1.67;;
17201;SDS011;8717;53.588;10.176;2023-05-08T13:34:06;1.85;;;1.60;;
17201;SDS011;8717;53.588;10.176;2023-05-08T13:36:33;3.50;;;1.88;;
17201;SDS011;8717;53.588;10.176;2023-05-08T13:39:00;2.17;;;1.90;;
17201;SDS011;8717;53.588;10.176;2023-05-08T13:41:28;4.15;;;1.90;;
17201;SDS011;8717;53.588;10.176;2023-05-08T13:43:55;1.85;;;1.48;;
17201;SDS011;8717;53.588;10.176;2023-05-08T13:46:22;3.13;;;1.70;;
17201;SDS011;8717;53.588;10.176;2023-05-08T13:48:49;1.67;;;1.45;;
17201;SDS011;8717;53.588;10.176;2023-05-08T13:51:15;2.53;;;1.88;;
17201;SDS011;8717;53.588;10.176;2023-05-08T13:53:42;2.55;;;1.80;;
17201;SDS011;8717;53.588;10.176;2023-05-08T13:56:09;2.80;;;1.90;;
17201;SDS011;8717;53.588;10.176;2023-05-08T13:58:37;1.95;;;1.80;;
17201;SDS011;8717;53.588;10.176;2023-05-08T14:01:04;2.47;;;1.55;;
17201;SDS011;8717;53.588;10.176;2023-05-08T14:03:30;1.77;;;1.48;;
17201;SDS011;8717;53.588;10.176;2023-05-08T14:05:57;2.60;;;1.63;;
17201;SDS011;8717;53.588;10.176;2023-05-08T14:08:24;1.98;;;1.70;;
17201;SDS011;8717;53.588;10.176;2023-05-08T14:10:50;1.80;;;1.70;;
17201;SDS011;8717;53.588;10.176;2023-05-08T14:13:18;2.00;;;1.40;;
17201;SDS011;8717;53.588;10.176;2023-05-08T14:15:45;2.35;;;1.35;;
17201;SDS011;8717;53.588;10.176;2023-05-08T14:18:12;1.80;;;1.33;;
17201;SDS011;8717;53.588;10.176;2023-05-08T14:20:39;3.78;;;1.55;;
17201;SDS011;8717;53.588;10.176;2023-05-08T14:23:05;1.48;;;1.20;;
17201;SDS011;8717;53.588;10.176;2023-05-08T14:25:32;3.58;;;1.67;;
17201;SDS011;8717;53.588;10.176;2023-05-08T14:27:59;2.53;;;1.70;;
17201;SDS011;8717;53.588;10.176;2023-05-08T14:30:25;2.90;;;1.35;;
17201;SDS011;8717;53.588;10.176;2023-05-08T14:32:53;1.85;;;1.30;;
17201;SDS011;8717;53.588;10.176;2023-05-08T14:35:20;3.33;;;1.48;;
17201;SDS011;8717;53.588;10.176;2023-05-08T14:37:47;2.85;;;1.40;;
17201;SDS011;8717;53.588;10.176;2023-05-08T14:40:13;1.75;;;1.48;;
17201;SDS011;8717;53.588;10.176;2023-05-08T14:42:40;3.90;;;1.50;;
17201;SDS011;8717;53.588;10.176;2023-05-08T14:45:07;2.85;;;1.35;;
17201;SDS011;8717;53.588;10.176;2023-05-08T14:47:34;3.72;;;1.30;;
17201;SDS011;8717;53.588;10.176;2023-05-08T14:50:02;4.13;;;1.38;;
17201;SDS011;8717;53.588;10.176;2023-05-08T14:52:29;3.20;;;1.30;;
17201;SDS011;8717;53.588;10.176;2023-05-08T14:54:56;3.67;;;1.35;;
17201;SDS011;8717;53.588;10.176;2023-05-08T14:57:23;1.77;;;1.30;;
17201;SDS011;8717;53.588;10.176;2023-05-08T14:59:50;2.47;;;1.40;;
17201;SDS011;8717;53.588;10.176;2023-05-08T15:02:16;3.80;;;1.40;;
17201;SDS011;8717;53.588;10.176;2023-05-08T15:04:44;2.25;;;1.30;;
17201;SDS011;8717;53.588;10.176;2023-05-08T15:07:12;3.10;;;1.40;;
17201;SDS011;8717;53.588;10.176;2023-05-08T15:09:39;1.58;;;1.48;;